LIRP/PSA METAR and TAF weather

Enter ICAO airport designator
Station Type Date Time Source
LIRP METAR 2020/09/21 06:45 UTC NOAA

LIRP 210645Z 14005KT CAVOK 16/16 Q1014 NOSIG


Station Type Date Time Source
LIRP Decoded METAR 2020/09/21 06:45 UTC NOAA

Pisa / S. Giusto, Italy (LIRP) 43-41N 010-23E 6M
Sep 21, 2020 - 02:45 AM EDT / 2020.09.21 0645 UTC
Wind: from the SE (140 degrees) at 6 MPH (5 KT):0
Visibility: greater than 7 mile(s):0
Temperature: 60 F (16 C)
Dew Point: 60 F (16 C)
Relative Humidity: 100%
Pressure (altimeter): 29.94 in. Hg (1014 hPa)
ob: LIRP 210645Z 14005KT CAVOK 16/16 Q1014 NOSIG
cycle: 7

Station Type Date Time Source
LIRP TAF 2020/09/21 06:21 UTC NOAA

TAF LIRP 210500Z 2106/2206 12005KT 9999 SCT040
TEMPO 2106/2107 3000 BR SCT015
TEMPO 2109/2206 5000 TSRA FEW020CB BKN030
BECMG 2110/2112 24010KT PROB30
TEMPO 2112/2118 24015G25KT
BECMG 2122/2124 12005KT

Example: see airport list